sensor_id;sensor_type;location;lat;lon;timestamp;temperature;humidity
9437;DHT22;4757;59.334;18.034;2023-02-28T00:01:09;2.80;99.90
9437;DHT22;4757;59.334;18.034;2023-02-28T00:03:36;2.70;99.90
9437;DHT22;4757;59.334;18.034;2023-02-28T00:06:05;2.70;99.90
9437;DHT22;4757;59.334;18.034;2023-02-28T00:08:32;2.70;99.90
9437;DHT22;4757;59.334;18.034;2023-02-28T00:11:05;2.70;99.90
9437;DHT22;4757;59.334;18.034;2023-02-28T00:13:35;2.70;99.90
9437;DHT22;4757;59.334;18.034;2023-02-28T00:16:16;2.60;99.90
9437;DHT22;4757;59.334;18.034;2023-02-28T00:18:44;2.70;99.90
9437;DHT22;4757;59.334;18.034;2023-02-28T00:21:11;2.60;99.90
9437;DHT22;4757;59.334;18.034;2023-02-28T00:23:38;2.60;99.90
9437;DHT22;4757;59.334;18.034;2023-02-28T00:26:06;2.60;99.90
9437;DHT22;4757;59.334;18.034;2023-02-28T00:28:33;2.60;99.90
9437;DHT22;4757;59.334;18.034;2023-02-28T00:31:00;2.60;99.90
9437;DHT22;4757;59.334;18.034;2023-02-28T00:33:28;2.60;99.90
9437;DHT22;4757;59.334;18.034;2023-02-28T00:36:07;2.50;99.90
9437;DHT22;4757;59.334;18.034;2023-02-28T00:38:35;2.50;99.90
9437;DHT22;4757;59.334;18.034;2023-02-28T00:41:03;2.50;99.90
9437;DHT22;4757;59.334;18.034;2023-02-28T00:43:38;2.50;99.90
9437;DHT22;4757;59.334;18.034;2023-02-28T00:46:06;2.50;99.90
9437;DHT22;4757;59.334;18.034;2023-02-28T00:48:33;2.40;99.90
9437;DHT22;4757;59.334;18.034;2023-02-28T00:51:02;2.50;99.90
9437;DHT22;4757;59.334;18.034;2023-02-28T00:53:30;2.40;99.90
9437;DHT22;4757;59.334;18.034;2023-02-28T00:55:59;2.40;99.90
9437;DHT22;4757;59.334;18.034;2023-02-28T00:58:27;2.40;99.90
9437;DHT22;4757;59.334;18.034;2023-02-28T01:00:55;2.40;99.90
9437;DHT22;4757;59.334;18.034;2023-02-28T01:03:22;2.50;99.90
9437;DHT22;4757;59.334;18.034;2023-02-28T01:05:50;2.40;99.90
9437;DHT22;4757;59.334;18.034;2023-02-28T01:08:18;2.40;99.90
9437;DHT22;4757;59.334;18.034;2023-02-28T01:10:47;2.40;99.90
9437;DHT22;4757;59.334;18.034;2023-02-28T01:13:15;2.40;99.90
9437;DHT22;4757;59.334;18.034;2023-02-28T01:15:45;2.40;99.90
9437;DHT22;4757;59.334;18.034;2023-02-28T01:18:12;2.40;99.90
9437;DHT22;4757;59.334;18.034;2023-02-28T01:20:40;2.40;99.90
9437;DHT22;4757;59.334;18.034;2023-02-28T01:23:07;2.30;99.90
9437;DHT22;4757;59.334;18.034;2023-02-28T01:25:37;2.30;99.90
9437;DHT22;4757;59.334;18.034;2023-02-28T01:28:05;2.30;99.90
9437;DHT22;4757;59.334;18.034;2023-02-28T01:30:33;2.30;99.90
9437;DHT22;4757;59.334;18.034;2023-02-28T01:33:00;2.30;99.90
9437;DHT22;4757;59.334;18.034;2023-02-28T01:35:27;2.30;99.90
9437;DHT22;4757;59.334;18.034;2023-02-28T01:37:55;2.30;99.90
9437;DHT22;4757;59.334;18.034;2023-02-28T01:40:30;2.30;99.90
9437;DHT22;4757;59.334;18.034;2023-02-28T01:42:59;2.20;99.90
9437;DHT22;4757;59.334;18.034;2023-02-28T01:45:31;2.20;99.90
9437;DHT22;4757;59.334;18.034;2023-02-28T01:48:02;2.20;99.90
9437;DHT22;4757;59.334;18.034;2023-02-28T01:50:34;2.20;99.90
9437;DHT22;4757;59.334;18.034;2023-02-28T01:53:06;2.20;99.90
9437;DHT22;4757;59.334;18.034;2023-02-28T01:55:36;2.20;99.90
9437;DHT22;4757;59.334;18.034;2023-02-28T01:58:06;2.10;99.90
9437;DHT22;4757;59.334;18.034;2023-02-28T02:00:34;2.10;99.90
9437;DHT22;4757;59.334;18.034;2023-02-28T02:03:13;2.10;99.90
9437;DHT22;4757;59.334;18.034;2023-02-28T02:05:43;2.10;99.90
9437;DHT22;4757;59.334;18.034;2023-02-28T02:08:23;2.10;99.90
9437;DHT22;4757;59.334;18.034;2023-02-28T02:11:01;2.00;99.90
9437;DHT22;4757;59.334;18.034;2023-02-28T02:13:42;2.00;99.90
9437;DHT22;4757;59.334;18.034;2023-02-28T02:19:00;2.00;99.90
9437;DHT22;4757;59.334;18.034;2023-02-28T02:26:52;1.90;99.90
9437;DHT22;4757;59.334;18.034;2023-02-28T02:32:35;1.90;99.90
9437;DHT22;4757;59.334;18.034;2023-02-28T02:40:17;1.90;99.90
9437;DHT22;4757;59.334;18.034;2023-02-28T02:43:12;1.80;99.90
9437;DHT22;4757;59.334;18.034;2023-02-28T02:45:55;1.80;99.90
9437;DHT22;4757;59.334;18.034;2023-02-28T02:48:27;1.80;99.90
9437;DHT22;4757;59.334;18.034;2023-02-28T02:50:58;1.70;99.90
9437;DHT22;4757;59.334;18.034;2023-02-28T02:53:33;1.80;99.90
9437;DHT22;4757;59.334;18.034;2023-02-28T02:56:02;1.80;99.90
9437;DHT22;4757;59.334;18.034;2023-02-28T02:58:34;1.70;99.90
9437;DHT22;4757;59.334;18.034;2023-02-28T03:01:04;1.70;99.90
9437;DHT22;4757;59.334;18.034;2023-02-28T03:03:32;1.80;99.90
9437;DHT22;4757;59.334;18.034;2023-02-28T03:06:01;1.70;99.90
9437;DHT22;4757;59.334;18.034;2023-02-28T03:08:34;1.70;99.90
9437;DHT22;4757;59.334;18.034;2023-02-28T03:11:04;1.70;99.90
9437;DHT22;4757;59.334;18.034;2023-02-28T03:14:53;1.60;99.90
9437;DHT22;4757;59.334;18.034;2023-02-28T03:20:12;1.50;99.90
9437;DHT22;4757;59.334;18.034;2023-02-28T03:22:52;1.50;99.90
9437;DHT22;4757;59.334;18.034;2023-02-28T03:25:46;1.50;99.90
9437;DHT22;4757;59.334;18.034;2023-02-28T03:36:32;1.50;99.90
9437;DHT22;4757;59.334;18.034;2023-02-28T03:39:08;1.50;99.90
9437;DHT22;4757;59.334;18.034;2023-02-28T03:41:40;1.40;99.90
9437;DHT22;4757;59.334;18.034;2023-02-28T03:44:20;1.40;99.90
9437;DHT22;4757;59.334;18.034;2023-02-28T03:47:02;1.40;99.90
9437;DHT22;4757;59.334;18.034;2023-02-28T03:49:43;1.40;99.90
9437;DHT22;4757;59.334;18.034;2023-02-28T03:52:12;1.40;99.90
9437;DHT22;4757;59.334;18.034;2023-02-28T03:54:52;1.30;99.90
9437;DHT22;4757;59.334;18.034;2023-02-28T04:00:12;1.30;99.90
9437;DHT22;4757;59.334;18.034;2023-02-28T04:02:41;1.30;99.90
9437;DHT22;4757;59.334;18.034;2023-02-28T04:05:08;1.20;99.90
9437;DHT22;4757;59.334;18.034;2023-02-28T04:07:35;1.20;99.90
9437;DHT22;4757;59.334;18.034;2023-02-28T04:10:03;1.30;99.90
9437;DHT22;4757;59.334;18.034;2023-02-28T04:12:31;1.20;99.90
9437;DHT22;4757;59.334;18.034;2023-02-28T04:14:58;1.20;99.90
9437;DHT22;4757;59.334;18.034;2023-02-28T04:17:25;1.20;99.90
9437;DHT22;4757;59.334;18.034;2023-02-28T04:19:52;1.20;99.90
9437;DHT22;4757;59.334;18.034;2023-02-28T04:22:20;1.10;99.90
9437;DHT22;4757;59.334;18.034;2023-02-28T04:24:47;1.10;99.90
9437;DHT22;4757;59.334;18.034;2023-02-28T04:27:14;1.10;99.90
9437;DHT22;4757;59.334;18.034;2023-02-28T04:29:42;1.10;99.90
9437;DHT22;4757;59.334;18.034;2023-02-28T04:32:11;1.10;99.90
9437;DHT22;4757;59.334;18.034;2023-02-28T04:34:38;1.10;99.90
9437;DHT22;4757;59.334;18.034;2023-02-28T04:37:06;1.20;99.90
9437;DHT22;4757;59.334;18.034;2023-02-28T04:39:40;1.20;99.90
9437;DHT22;4757;59.334;18.034;2023-02-28T04:42:07;1.20;99.90
9437;DHT22;4757;59.334;18.034;2023-02-28T04:44:35;1.10;99.90
9437;DHT22;4757;59.334;18.034;2023-02-28T04:47:02;1.10;99.90
9437;DHT22;4757;59.334;18.034;2023-02-28T04:49:29;1.10;99.90
9437;DHT22;4757;59.334;18.034;2023-02-28T04:51:56;1.00;99.90
9437;DHT22;4757;59.334;18.034;2023-02-28T04:54:23;1.00;99.90
9437;DHT22;4757;59.334;18.034;2023-02-28T04:56:51;1.00;99.90
9437;DHT22;4757;59.334;18.034;2023-02-28T04:59:18;1.00;99.90
9437;DHT22;4757;59.334;18.034;2023-02-28T05:01:47;1.00;99.90
9437;DHT22;4757;59.334;18.034;2023-02-28T05:04:15;1.00;99.90
9437;DHT22;4757;59.334;18.034;2023-02-28T05:06:42;1.00;99.90
9437;DHT22;4757;59.334;18.034;2023-02-28T05:09:09;1.00;99.90
9437;DHT22;4757;59.334;18.034;2023-02-28T05:11:39;1.00;99.90
9437;DHT22;4757;59.334;18.034;2023-02-28T05:14:10;0.90;99.90
9437;DHT22;4757;59.334;18.034;2023-02-28T05:16:39;0.90;99.90
9437;DHT22;4757;59.334;18.034;2023-02-28T05:19:06;1.00;99.90
9437;DHT22;4757;59.334;18.034;2023-02-28T05:21:36;1.00;99.90
9437;DHT22;4757;59.334;18.034;2023-02-28T05:24:11;0.90;99.90
9437;DHT22;4757;59.334;18.034;2023-02-28T05:26:42;0.90;99.90
9437;DHT22;4757;59.334;18.034;2023-02-28T05:29:10;0.90;99.90
9437;DHT22;4757;59.334;18.034;2023-02-28T05:31:37;0.90;99.90
9437;DHT22;4757;59.334;18.034;2023-02-28T05:34:05;0.90;99.90
9437;DHT22;4757;59.334;18.034;2023-02-28T05:36:33;0.90;99.90
9437;DHT22;4757;59.334;18.034;2023-02-28T05:39:00;0.90;99.90
9437;DHT22;4757;59.334;18.034;2023-02-28T05:41:27;0.90;99.90
9437;DHT22;4757;59.334;18.034;2023-02-28T05:43:55;0.90;99.90
9437;DHT22;4757;59.334;18.034;2023-02-28T05:46:26;0.90;99.90
9437;DHT22;4757;59.334;18.034;2023-02-28T05:48:53;0.90;99.90
9437;DHT22;4757;59.334;18.034;2023-02-28T05:51:22;0.90;99.90
9437;DHT22;4757;59.334;18.034;2023-02-28T05:53:49;0.90;99.90
9437;DHT22;4757;59.334;18.034;2023-02-28T05:56:16;0.90;99.90
9437;DHT22;4757;59.334;18.034;2023-02-28T05:58:44;0.90;99.90
9437;DHT22;4757;59.334;18.034;2023-02-28T06:04:00;0.90;99.90
9437;DHT22;4757;59.334;18.034;2023-02-28T06:06:30;1.00;99.90
9437;DHT22;4757;59.334;18.034;2023-02-28T06:09:00;1.10;99.90
9437;DHT22;4757;59.334;18.034;2023-02-28T06:11:28;1.10;99.90
9437;DHT22;4757;59.334;18.034;2023-02-28T06:13:57;1.10;99.90
9437;DHT22;4757;59.334;18.034;2023-02-28T06:16:30;1.10;99.90
9437;DHT22;4757;59.334;18.034;2023-02-28T06:19:03;1.10;99.90
9437;DHT22;4757;59.334;18.034;2023-02-28T06:21:30;1.20;99.90
9437;DHT22;4757;59.334;18.034;2023-02-28T06:23:58;1.20;99.90
9437;DHT22;4757;59.334;18.034;2023-02-28T06:26:26;1.20;99.90
9437;DHT22;4757;59.334;18.034;2023-02-28T06:28:54;1.20;99.90
9437;DHT22;4757;59.334;18.034;2023-02-28T06:31:21;1.30;99.90
9437;DHT22;4757;59.334;18.034;2023-02-28T06:33:50;1.20;99.90
9437;DHT22;4757;59.334;18.034;2023-02-28T06:36:17;1.30;99.90
9437;DHT22;4757;59.334;18.034;2023-02-28T06:38:45;1.30;99.90
9437;DHT22;4757;59.334;18.034;2023-02-28T06:41:13;1.30;99.90
9437;DHT22;4757;59.334;18.034;2023-02-28T06:43:41;1.30;99.90
9437;DHT22;4757;59.334;18.034;2023-02-28T06:46:12;1.40;99.90
9437;DHT22;4757;59.334;18.034;2023-02-28T06:48:42;1.50;99.90
9437;DHT22;4757;59.334;18.034;2023-02-28T06:51:13;1.50;99.90
9437;DHT22;4757;59.334;18.034;2023-02-28T06:53:43;1.60;99.90
9437;DHT22;4757;59.334;18.034;2023-02-28T06:56:14;1.60;99.90
9437;DHT22;4757;59.334;18.034;2023-02-28T06:58:45;1.60;99.90
9437;DHT22;4757;59.334;18.034;2023-02-28T07:01:19;1.70;99.90
9437;DHT22;4757;59.334;18.034;2023-02-28T07:03:46;1.70;99.90
9437;DHT22;4757;59.334;18.034;2023-02-28T07:06:13;1.80;99.90
9437;DHT22;4757;59.334;18.034;2023-02-28T07:08:41;1.80;99.90
9437;DHT22;4757;59.334;18.034;2023-02-28T07:11:08;1.90;99.90
9437;DHT22;4757;59.334;18.034;2023-02-28T07:13:36;2.00;99.90
9437;DHT22;4757;59.334;18.034;2023-02-28T07:16:06;2.00;99.90
9437;DHT22;4757;59.334;18.034;2023-02-28T07:18:35;2.10;99.90
9437;DHT22;4757;59.334;18.034;2023-02-28T07:21:03;2.20;99.90
9437;DHT22;4757;59.334;18.034;2023-02-28T07:23:31;2.30;99.90
9437;DHT22;4757;59.334;18.034;2023-02-28T07:25:59;2.30;99.90
9437;DHT22;4757;59.334;18.034;2023-02-28T07:28:26;2.40;99.90
9437;DHT22;4757;59.334;18.034;2023-02-28T07:30:53;2.40;99.90
9437;DHT22;4757;59.334;18.034;2023-02-28T07:33:21;2.50;99.90
9437;DHT22;4757;59.334;18.034;2023-02-28T07:35:48;2.50;99.90
9437;DHT22;4757;59.334;18.034;2023-02-28T07:38:15;2.50;99.90
9437;DHT22;4757;59.334;18.034;2023-02-28T07:40:43;2.60;99.90
9437;DHT22;4757;59.334;18.034;2023-02-28T07:43:10;2.60;99.90
9437;DHT22;4757;59.334;18.034;2023-02-28T07:45:37;2.70;99.90
9437;DHT22;4757;59.334;18.034;2023-02-28T07:48:05;2.70;99.90
9437;DHT22;4757;59.334;18.034;2023-02-28T07:50:32;2.70;99.90
9437;DHT22;4757;59.334;18.034;2023-02-28T07:52:59;2.70;99.90
9437;DHT22;4757;59.334;18.034;2023-02-28T07:55:27;2.80;99.90
9437;DHT22;4757;59.334;18.034;2023-02-28T07:57:54;2.80;99.90
9437;DHT22;4757;59.334;18.034;2023-02-28T08:00:24;2.80;99.90
9437;DHT22;4757;59.334;18.034;2023-02-28T08:02:51;2.90;99.90
9437;DHT22;4757;59.334;18.034;2023-02-28T08:05:19;2.90;99.90
9437;DHT22;4757;59.334;18.034;2023-02-28T08:07:49;2.90;99.90
9437;DHT22;4757;59.334;18.034;2023-02-28T08:10:17;2.90;99.90
9437;DHT22;4757;59.334;18.034;2023-02-28T08:12:44;3.10;99.90
9437;DHT22;4757;59.334;18.034;2023-02-28T08:15:11;3.10;99.90
9437;DHT22;4757;59.334;18.034;2023-02-28T08:17:39;3.20;99.90
9437;DHT22;4757;59.334;18.034;2023-02-28T08:20:08;3.30;99.90
9437;DHT22;4757;59.334;18.034;2023-02-28T08:22:37;3.50;99.90
9437;DHT22;4757;59.334;18.034;2023-02-28T08:25:04;3.50;99.90
9437;DHT22;4757;59.334;18.034;2023-02-28T08:27:35;3.50;99.90
9437;DHT22;4757;59.334;18.034;2023-02-28T08:30:05;3.60;99.90
9437;DHT22;4757;59.334;18.034;2023-02-28T08:32:34;3.70;99.90
9437;DHT22;4757;59.334;18.034;2023-02-28T08:35:02;3.70;99.90
9437;DHT22;4757;59.334;18.034;2023-02-28T08:37:30;3.70;99.90
9437;DHT22;4757;59.334;18.034;2023-02-28T08:39:58;3.80;99.90
9437;DHT22;4757;59.334;18.034;2023-02-28T08:42:25;3.70;99.90
9437;DHT22;4757;59.334;18.034;2023-02-28T08:44:52;3.80;99.90
9437;DHT22;4757;59.334;18.034;2023-02-28T08:47:19;3.90;99.90
9437;DHT22;4757;59.334;18.034;2023-02-28T08:49:46;4.00;99.90
9437;DHT22;4757;59.334;18.034;2023-02-28T08:52:14;4.00;99.90
9437;DHT22;4757;59.334;18.034;2023-02-28T08:54:42;4.00;99.90
9437;DHT22;4757;59.334;18.034;2023-02-28T08:57:09;4.00;99.90
9437;DHT22;4757;59.334;18.034;2023-02-28T08:59:36;4.00;99.90
9437;DHT22;4757;59.334;18.034;2023-02-28T09:02:03;4.00;99.90
9437;DHT22;4757;59.334;18.034;2023-02-28T09:04:31;4.00;99.90
9437;DHT22;4757;59.334;18.034;2023-02-28T09:06:58;4.00;99.90
9437;DHT22;4757;59.334;18.034;2023-02-28T09:09:25;4.10;99.90
9437;DHT22;4757;59.334;18.034;2023-02-28T09:11:55;4.20;99.90
9437;DHT22;4757;59.334;18.034;2023-02-28T09:14:23;4.20;99.90
9437;DHT22;4757;59.334;18.034;2023-02-28T09:16:50;4.20;99.90
9437;DHT22;4757;59.334;18.034;2023-02-28T09:19:17;4.30;99.90
9437;DHT22;4757;59.334;18.034;2023-02-28T09:21:44;4.40;99.90
9437;DHT22;4757;59.334;18.034;2023-02-28T09:24:11;4.40;99.90
9437;DHT22;4757;59.334;18.034;2023-02-28T09:26:41;4.50;99.90
9437;DHT22;4757;59.334;18.034;2023-02-28T09:29:17;4.50;99.90
9437;DHT22;4757;59.334;18.034;2023-02-28T09:31:44;4.70;99.90
9437;DHT22;4757;59.334;18.034;2023-02-28T09:34:12;4.70;99.90
9437;DHT22;4757;59.334;18.034;2023-02-28T09:36:39;4.80;99.90
9437;DHT22;4757;59.334;18.034;2023-02-28T09:39:12;4.80;99.90
9437;DHT22;4757;59.334;18.034;2023-02-28T09:41:47;4.90;99.90
9437;DHT22;4757;59.334;18.034;2023-02-28T09:44:33;4.90;99.90
9437;DHT22;4757;59.334;18.034;2023-02-28T09:49:42;5.00;99.90
9437;DHT22;4757;59.334;18.034;2023-02-28T09:52:15;5.10;99.90
9437;DHT22;4757;59.334;18.034;2023-02-28T09:54:44;5.20;99.90
9437;DHT22;4757;59.334;18.034;2023-02-28T10:06:29;5.50;99.90
9437;DHT22;4757;59.334;18.034;2023-02-28T10:08:28;5.60;99.90
9437;DHT22;4757;59.334;18.034;2023-02-28T10:11:02;5.60;99.90
9437;DHT22;4757;59.334;18.034;2023-02-28T10:16:24;5.70;99.90
9437;DHT22;4757;59.334;18.034;2023-02-28T10:19:09;5.80;99.90
9437;DHT22;4757;59.334;18.034;2023-02-28T10:22:03;5.70;99.90
9437;DHT22;4757;59.334;18.034;2023-02-28T10:24:35;5.60;99.90
9437;DHT22;4757;59.334;18.034;2023-02-28T10:29:45;5.60;99.90
9437;DHT22;4757;59.334;18.034;2023-02-28T10:32:19;5.60;99.90
9437;DHT22;4757;59.334;18.034;2023-02-28T10:34:57;5.70;99.90
9437;DHT22;4757;59.334;18.034;2023-02-28T10:37:29;5.70;99.90
9437;DHT22;4757;59.334;18.034;2023-02-28T10:39:58;5.70;99.90
9437;DHT22;4757;59.334;18.034;2023-02-28T10:42:28;5.70;99.90
9437;DHT22;4757;59.334;18.034;2023-02-28T10:45:06;5.70;99.90
9437;DHT22;4757;59.334;18.034;2023-02-28T10:47:53;5.70;99.90
9437;DHT22;4757;59.334;18.034;2023-02-28T10:50:42;5.80;99.90
9437;DHT22;4757;59.334;18.034;2023-02-28T10:58:58;5.80;99.90
9437;DHT22;4757;59.334;18.034;2023-02-28T11:01:44;5.90;99.90
9437;DHT22;4757;59.334;18.034;2023-02-28T11:04:33;5.80;99.90
9437;DHT22;4757;59.334;18.034;2023-02-28T11:07:22;5.90;99.90
9437;DHT22;4757;59.334;18.034;2023-02-28T11:09:57;6.00;99.90
9437;DHT22;4757;59.334;18.034;2023-02-28T11:12:28;6.00;99.90
9437;DHT22;4757;59.334;18.034;2023-02-28T11:15:02;6.00;99.90
9437;DHT22;4757;59.334;18.034;2023-02-28T11:17:31;6.10;99.90
9437;DHT22;4757;59.334;18.034;2023-02-28T11:20:05;6.10;99.90
9437;DHT22;4757;59.334;18.034;2023-02-28T11:22:37;6.10;99.90
9437;DHT22;4757;59.334;18.034;2023-02-28T11:25:20;6.10;99.90
9437;DHT22;4757;59.334;18.034;2023-02-28T11:27:50;6.20;99.90
9437;DHT22;4757;59.334;18.034;2023-02-28T11:32:54;6.20;99.90
9437;DHT22;4757;59.334;18.034;2023-02-28T11:35:39;6.30;99.90
9437;DHT22;4757;59.334;18.034;2023-02-28T11:38:12;6.40;99.90
9437;DHT22;4757;59.334;18.034;2023-02-28T11:43:27;6.40;99.90
9437;DHT22;4757;59.334;18.034;2023-02-28T11:54:59;6.80;99.90
9437;DHT22;4757;59.334;18.034;2023-02-28T12:03:11;6.90;99.90
9437;DHT22;4757;59.334;18.034;2023-02-28T12:08:51;6.90;99.90
9437;DHT22;4757;59.334;18.034;2023-02-28T12:19:32;7.00;99.90
9437;DHT22;4757;59.334;18.034;2023-02-28T12:22:29;7.00;99.90
9437;DHT22;4757;59.334;18.034;2023-02-28T12:27:39;7.10;99.90
9437;DHT22;4757;59.334;18.034;2023-02-28T12:30:35;7.20;99.90
9437;DHT22;4757;59.334;18.034;2023-02-28T12:33:12;7.20;99.90
9437;DHT22;4757;59.334;18.034;2023-02-28T12:36:01;7.30;99.90
9437;DHT22;4757;59.334;18.034;2023-02-28T12:38:51;7.30;99.90
9437;DHT22;4757;59.334;18.034;2023-02-28T12:42:00;7.40;99.90
9437;DHT22;4757;59.334;18.034;2023-02-28T12:44:33;7.40;99.90
9437;DHT22;4757;59.334;18.034;2023-02-28T12:47:04;7.50;99.90
9437;DHT22;4757;59.334;18.034;2023-02-28T12:49:37;7.70;99.90
9437;DHT22;4757;59.334;18.034;2023-02-28T12:52:06;7.80;99.90
9437;DHT22;4757;59.334;18.034;2023-02-28T12:58:31;8.00;99.90
9437;DHT22;4757;59.334;18.034;2023-02-28T13:09:14;8.80;99.90
9437;DHT22;4757;59.334;18.034;2023-02-28T13:11:45;8.90;99.90
9437;DHT22;4757;59.334;18.034;2023-02-28T13:17:11;9.20;99.90
9437;DHT22;4757;59.334;18.034;2023-02-28T13:19:55;9.40;99.90
9437;DHT22;4757;59.334;18.034;2023-02-28T13:22:42;9.30;99.90
9437;DHT22;4757;59.334;18.034;2023-02-28T13:27:54;8.70;99.90
9437;DHT22;4757;59.334;18.034;2023-02-28T13:31:03;8.50;99.90
9437;DHT22;4757;59.334;18.034;2023-02-28T13:36:30;8.10;99.90
9437;DHT22;4757;59.334;18.034;2023-02-28T13:39:00;8.00;99.90
9437;DHT22;4757;59.334;18.034;2023-02-28T13:46:28;8.10;99.90
9437;DHT22;4757;59.334;18.034;2023-02-28T13:48:55;8.00;99.90
9437;DHT22;4757;59.334;18.034;2023-02-28T13:51:42;8.00;99.90
9437;DHT22;4757;59.334;18.034;2023-02-28T14:02:43;7.80;99.90
9437;DHT22;4757;59.334;18.034;2023-02-28T14:05:22;7.70;99.90
9437;DHT22;4757;59.334;18.034;2023-02-28T14:08:08;7.70;99.90
9437;DHT22;4757;59.334;18.034;2023-02-28T14:10:49;7.80;99.90
9437;DHT22;4757;59.334;18.034;2023-02-28T14:13:41;7.70;99.90
9437;DHT22;4757;59.334;18.034;2023-02-28T14:16:17;7.70;99.90
9437;DHT22;4757;59.334;18.034;2023-02-28T14:18:56;7.70;99.90
9437;DHT22;4757;59.334;18.034;2023-02-28T14:27:24;7.60;99.90
9437;DHT22;4757;59.334;18.034;2023-02-28T14:30:02;7.60;99.90
9437;DHT22;4757;59.334;18.034;2023-02-28T14:33:27;7.50;99.90
9437;DHT22;4757;59.334;18.034;2023-02-28T14:36:07;7.50;99.90
9437;DHT22;4757;59.334;18.034;2023-02-28T14:38:55;7.60;99.90
9437;DHT22;4757;59.334;18.034;2023-02-28T14:41:38;7.50;99.90
9437;DHT22;4757;59.334;18.034;2023-02-28T14:44:27;7.50;99.90
9437;DHT22;4757;59.334;18.034;2023-02-28T14:47:00;7.50;99.90
9437;DHT22;4757;59.334;18.034;2023-02-28T14:49:37;7.50;99.90
9437;DHT22;4757;59.334;18.034;2023-02-28T14:52:19;7.50;99.90
9437;DHT22;4757;59.334;18.034;2023-02-28T14:54:55;7.40;99.90
9437;DHT22;4757;59.334;18.034;2023-02-28T15:00:00;7.40;99.90
9437;DHT22;4757;59.334;18.034;2023-02-28T15:02:34;7.40;99.90
9437;DHT22;4757;59.334;18.034;2023-02-28T15:07:47;7.40;99.90
9437;DHT22;4757;59.334;18.034;2023-02-28T15:10:19;7.40;99.90
9437;DHT22;4757;59.334;18.034;2023-02-28T15:13:01;7.30;99.90
9437;DHT22;4757;59.334;18.034;2023-02-28T15:18:42;7.40;99.90
9437;DHT22;4757;59.334;18.034;2023-02-28T15:23:55;7.30;99.90
9437;DHT22;4757;59.334;18.034;2023-02-28T15:26:29;7.30;99.90
9437;DHT22;4757;59.334;18.034;2023-02-28T15:29:11;7.20;99.90
9437;DHT22;4757;59.334;18.034;2023-02-28T15:31:49;7.20;99.90
9437;DHT22;4757;59.334;18.034;2023-02-28T15:34:43;7.20;99.90
9437;DHT22;4757;59.334;18.034;2023-02-28T15:37:37;7.10;99.90
9437;DHT22;4757;59.334;18.034;2023-02-28T15:43:14;7.00;99.90
9437;DHT22;4757;59.334;18.034;2023-02-28T15:46:04;7.00;99.90
9437;DHT22;4757;59.334;18.034;2023-02-28T15:48:36;7.00;99.90
9437;DHT22;4757;59.334;18.034;2023-02-28T15:51:14;7.00;99.90
9437;DHT22;4757;59.334;18.034;2023-02-28T15:54:05;7.00;99.90
9437;DHT22;4757;59.334;18.034;2023-02-28T15:56:46;6.90;99.90
9437;DHT22;4757;59.334;18.034;2023-02-28T15:59:22;6.90;99.90
9437;DHT22;4757;59.334;18.034;2023-02-28T16:02:20;6.80;99.90
9437;DHT22;4757;59.334;18.034;2023-02-28T16:05:18;6.90;99.90
9437;DHT22;4757;59.334;18.034;2023-02-28T16:07:46;6.80;99.90
9437;DHT22;4757;59.334;18.034;2023-02-28T16:10:15;6.70;99.90
9437;DHT22;4757;59.334;18.034;2023-02-28T16:12:45;6.70;99.90
9437;DHT22;4757;59.334;18.034;2023-02-28T16:15:38;6.60;99.90
9437;DHT22;4757;59.334;18.034;2023-02-28T16:18:11;6.60;99.90
9437;DHT22;4757;59.334;18.034;2023-02-28T16:20:39;6.60;99.90
9437;DHT22;4757;59.334;18.034;2023-02-28T16:23:11;6.50;99.90
9437;DHT22;4757;59.334;18.034;2023-02-28T16:25:42;6.50;99.90
9437;DHT22;4757;59.334;18.034;2023-02-28T16:28:18;6.50;99.90
9437;DHT22;4757;59.334;18.034;2023-02-28T16:30:46;6.50;99.90
9437;DHT22;4757;59.334;18.034;2023-02-28T16:33:14;6.50;99.90
9437;DHT22;4757;59.334;18.034;2023-02-28T16:35:41;6.40;99.90
9437;DHT22;4757;59.334;18.034;2023-02-28T16:38:29;6.40;99.90
9437;DHT22;4757;59.334;18.034;2023-02-28T16:42:20;6.40;99.90
9437;DHT22;4757;59.334;18.034;2023-02-28T16:44:49;6.30;99.90
9437;DHT22;4757;59.334;18.034;2023-02-28T16:47:16;6.30;99.90
9437;DHT22;4757;59.334;18.034;2023-02-28T16:49:44;6.20;99.90
9437;DHT22;4757;59.334;18.034;2023-02-28T16:52:21;6.30;99.90
9437;DHT22;4757;59.334;18.034;2023-02-28T16:55:35;6.20;99.90
9437;DHT22;4757;59.334;18.034;2023-02-28T17:00:51;6.10;99.90
9437;DHT22;4757;59.334;18.034;2023-02-28T17:03:27;6.20;99.90
9437;DHT22;4757;59.334;18.034;2023-02-28T17:06:00;6.10;99.90
9437;DHT22;4757;59.334;18.034;2023-02-28T17:08:27;6.10;99.90
9437;DHT22;4757;59.334;18.034;2023-02-28T17:10:56;6.10;99.90
9437;DHT22;4757;59.334;18.034;2023-02-28T17:13:23;6.10;99.90
9437;DHT22;4757;59.334;18.034;2023-02-28T17:15:50;6.00;99.90
9437;DHT22;4757;59.334;18.034;2023-02-28T17:18:18;5.90;99.90
9437;DHT22;4757;59.334;18.034;2023-02-28T17:20:48;6.00;99.90
9437;DHT22;4757;59.334;18.034;2023-02-28T17:23:15;5.90;99.90
9437;DHT22;4757;59.334;18.034;2023-02-28T17:25:42;5.90;99.90
9437;DHT22;4757;59.334;18.034;2023-02-28T17:28:23;5.90;99.90
9437;DHT22;4757;59.334;18.034;2023-02-28T17:30:50;5.90;99.90
9437;DHT22;4757;59.334;18.034;2023-02-28T17:33:17;5.80;99.90
9437;DHT22;4757;59.334;18.034;2023-02-28T17:35:44;5.80;99.90
9437;DHT22;4757;59.334;18.034;2023-02-28T17:38:16;5.70;99.90
9437;DHT22;4757;59.334;18.034;2023-02-28T17:40:52;5.70;99.90
9437;DHT22;4757;59.334;18.034;2023-02-28T17:43:39;5.80;99.90
9437;DHT22;4757;59.334;18.034;2023-02-28T17:46:16;5.70;99.90
9437;DHT22;4757;59.334;18.034;2023-02-28T17:48:45;5.60;99.90
9437;DHT22;4757;59.334;18.034;2023-02-28T17:51:13;5.50;99.90
9437;DHT22;4757;59.334;18.034;2023-02-28T17:53:40;5.50;99.90
9437;DHT22;4757;59.334;18.034;2023-02-28T17:56:20;5.60;99.90
9437;DHT22;4757;59.334;18.034;2023-02-28T17:58:48;5.50;99.90
9437;DHT22;4757;59.334;18.034;2023-02-28T18:01:15;5.40;99.90
9437;DHT22;4757;59.334;18.034;2023-02-28T18:03:43;5.40;99.90
9437;DHT22;4757;59.334;18.034;2023-02-28T18:06:16;5.40;99.90
9437;DHT22;4757;59.334;18.034;2023-02-28T18:08:45;5.40;99.90
9437;DHT22;4757;59.334;18.034;2023-02-28T18:11:12;5.40;99.90
9437;DHT22;4757;59.334;18.034;2023-02-28T18:13:45;5.30;99.90
9437;DHT22;4757;59.334;18.034;2023-02-28T18:16:13;5.30;99.90
9437;DHT22;4757;59.334;18.034;2023-02-28T18:18:41;5.30;99.90
9437;DHT22;4757;59.334;18.034;2023-02-28T18:21:10;5.30;99.90
9437;DHT22;4757;59.334;18.034;2023-02-28T18:23:37;5.30;99.90
9437;DHT22;4757;59.334;18.034;2023-02-28T18:26:11;5.40;99.90
9437;DHT22;4757;59.334;18.034;2023-02-28T18:28:38;5.30;99.90
9437;DHT22;4757;59.334;18.034;2023-02-28T18:31:07;5.40;99.90
9437;DHT22;4757;59.334;18.034;2023-02-28T18:33:34;5.40;99.90
9437;DHT22;4757;59.334;18.034;2023-02-28T18:36:01;5.40;99.90
9437;DHT22;4757;59.334;18.034;2023-02-28T18:38:31;5.40;99.90
9437;DHT22;4757;59.334;18.034;2023-02-28T18:41:01;5.30;99.90
9437;DHT22;4757;59.334;18.034;2023-02-28T18:43:30;5.30;99.90
9437;DHT22;4757;59.334;18.034;2023-02-28T18:45:57;5.30;99.90
9437;DHT22;4757;59.334;18.034;2023-02-28T18:48:33;5.30;99.90
9437;DHT22;4757;59.334;18.034;2023-02-28T18:51:12;5.30;99.90
9437;DHT22;4757;59.334;18.034;2023-02-28T18:53:40;5.30;99.90
9437;DHT22;4757;59.334;18.034;2023-02-28T18:56:12;5.30;99.90
9437;DHT22;4757;59.334;18.034;2023-02-28T18:58:40;5.30;99.90
9437;DHT22;4757;59.334;18.034;2023-02-28T19:03:47;5.30;99.90
9437;DHT22;4757;59.334;18.034;2023-02-28T19:06:15;5.20;99.90